sensor_id;sensor_type;location;lat;lon;timestamp;P1;durP1;ratioP1;P2;durP2;ratioP2
70806;SDS011;58882;52.170;5.386;2023-08-07T00:02:02;7.57;;;1.23;;
70806;SDS011;58882;52.170;5.386;2023-08-07T00:04:30;4.55;;;1.02;;
70806;SDS011;58882;52.170;5.386;2023-08-07T00:06:57;7.03;;;1.45;;
70806;SDS011;58882;52.170;5.386;2023-08-07T00:09:24;5.85;;;1.17;;
70806;SDS011;58882;52.170;5.386;2023-08-07T00:11:51;7.30;;;1.35;;
70806;SDS011;58882;52.170;5.386;2023-08-07T00:14:18;5.55;;;1.00;;
70806;SDS011;58882;52.170;5.386;2023-08-07T00:16:45;8.63;;;1.27;;
70806;SDS011;58882;52.170;5.386;2023-08-07T00:19:11;7.50;;;1.02;;
70806;SDS011;58882;52.170;5.386;2023-08-07T00:21:38;4.88;;;0.80;;
70806;SDS011;58882;52.170;5.386;2023-08-07T00:24:06;5.50;;;1.17;;
70806;SDS011;58882;52.170;5.386;2023-08-07T00:26:33;6.07;;;1.20;;
70806;SDS011;58882;52.170;5.386;2023-08-07T00:29:00;4.93;;;1.55;;
70806;SDS011;58882;52.170;5.386;2023-08-07T00:31:26;5.82;;;1.10;;
70806;SDS011;58882;52.170;5.386;2023-08-07T00:33:57;6.28;;;1.27;;
70806;SDS011;58882;52.170;5.386;2023-08-07T00:36:25;7.10;;;1.35;;
70806;SDS011;58882;52.170;5.386;2023-08-07T00:38:55;5.43;;;1.08;;
70806;SDS011;58882;52.170;5.386;2023-08-07T00:41:22;4.95;;;1.13;;
70806;SDS011;58882;52.170;5.386;2023-08-07T00:43:49;4.10;;;1.33;;
70806;SDS011;58882;52.170;5.386;2023-08-07T00:46:16;6.18;;;1.42;;
70806;SDS011;58882;52.170;5.386;2023-08-07T00:48:44;6.00;;;1.40;;
70806;SDS011;58882;52.170;5.386;2023-08-07T00:51:11;10.18;;;1.80;;
70806;SDS011;58882;52.170;5.386;2023-08-07T00:53:38;8.50;;;1.50;;
70806;SDS011;58882;52.170;5.386;2023-08-07T00:56:06;8.90;;;1.60;;
70806;SDS011;58882;52.170;5.386;2023-08-07T00:58:33;10.77;;;1.55;;
70806;SDS011;58882;52.170;5.386;2023-08-07T01:01:01;10.05;;;1.60;;
70806;SDS011;58882;52.170;5.386;2023-08-07T01:03:29;11.00;;;1.70;;
70806;SDS011;58882;52.170;5.386;2023-08-07T01:05:56;10.38;;;1.67;;
70806;SDS011;58882;52.170;5.386;2023-08-07T01:08:23;10.05;;;1.67;;
70806;SDS011;58882;52.170;5.386;2023-08-07T01:10:57;10.02;;;1.70;;
70806;SDS011;58882;52.170;5.386;2023-08-07T01:14:04;21.08;;;2.97;;
70806;SDS011;58882;52.170;5.386;2023-08-07T01:16:51;10.80;;;1.83;;
70806;SDS011;58882;52.170;5.386;2023-08-07T01:19:26;12.00;;;2.03;;
70806;SDS011;58882;52.170;5.386;2023-08-07T01:22:04;9.18;;;2.13;;
70806;SDS011;58882;52.170;5.386;2023-08-07T01:24:33;7.68;;;2.10;;
70806;SDS011;58882;52.170;5.386;2023-08-07T01:27:14;9.25;;;2.03;;
70806;SDS011;58882;52.170;5.386;2023-08-07T01:32:15;10.75;;;2.05;;
70806;SDS011;58882;52.170;5.386;2023-08-07T01:34:52;8.55;;;1.77;;
70806;SDS011;58882;52.170;5.386;2023-08-07T01:37:21;8.40;;;1.65;;
70806;SDS011;58882;52.170;5.386;2023-08-07T01:39:50;12.77;;;2.20;;
70806;SDS011;58882;52.170;5.386;2023-08-07T01:42:19;11.15;;;2.05;;
70806;SDS011;58882;52.170;5.386;2023-08-07T01:44:46;10.07;;;1.90;;
70806;SDS011;58882;52.170;5.386;2023-08-07T01:47:13;13.15;;;2.10;;
70806;SDS011;58882;52.170;5.386;2023-08-07T01:49:40;11.55;;;1.85;;
70806;SDS011;58882;52.170;5.386;2023-08-07T01:52:07;9.75;;;1.98;;
70806;SDS011;58882;52.170;5.386;2023-08-07T01:54:34;13.48;;;2.08;;
70806;SDS011;58882;52.170;5.386;2023-08-07T01:57:01;9.98;;;1.90;;
70806;SDS011;58882;52.170;5.386;2023-08-07T01:59:28;8.30;;;1.90;;
70806;SDS011;58882;52.170;5.386;2023-08-07T02:01:56;7.18;;;1.38;;
70806;SDS011;58882;52.170;5.386;2023-08-07T02:04:22;10.23;;;1.98;;
70806;SDS011;58882;52.170;5.386;2023-08-07T02:06:49;12.30;;;2.28;;
70806;SDS011;58882;52.170;5.386;2023-08-07T02:09:19;6.43;;;1.58;;
70806;SDS011;58882;52.170;5.386;2023-08-07T02:11:47;10.00;;;2.20;;
70806;SDS011;58882;52.170;5.386;2023-08-07T02:14:14;10.20;;;2.13;;
70806;SDS011;58882;52.170;5.386;2023-08-07T02:16:41;10.82;;;2.00;;
70806;SDS011;58882;52.170;5.386;2023-08-07T02:19:08;9.68;;;1.90;;
70806;SDS011;58882;52.170;5.386;2023-08-07T02:21:35;12.35;;;2.13;;
70806;SDS011;58882;52.170;5.386;2023-08-07T02:24:01;9.82;;;2.10;;
70806;SDS011;58882;52.170;5.386;2023-08-07T02:26:29;11.27;;;2.50;;
70806;SDS011;58882;52.170;5.386;2023-08-07T02:28:57;8.82;;;2.20;;
70806;SDS011;58882;52.170;5.386;2023-08-07T02:31:24;11.82;;;2.05;;
70806;SDS011;58882;52.170;5.386;2023-08-07T02:33:52;9.38;;;2.00;;
70806;SDS011;58882;52.170;5.386;2023-08-07T02:36:19;12.02;;;2.25;;
70806;SDS011;58882;52.170;5.386;2023-08-07T02:38:46;12.23;;;2.33;;
70806;SDS011;58882;52.170;5.386;2023-08-07T02:41:13;11.02;;;1.80;;
70806;SDS011;58882;52.170;5.386;2023-08-07T02:43:40;10.48;;;1.90;;
70806;SDS011;58882;52.170;5.386;2023-08-07T02:46:07;10.23;;;2.10;;
70806;SDS011;58882;52.170;5.386;2023-08-07T02:48:35;7.38;;;1.83;;
70806;SDS011;58882;52.170;5.386;2023-08-07T02:51:01;10.98;;;2.42;;
70806;SDS011;58882;52.170;5.386;2023-08-07T02:53:28;9.70;;;1.88;;
70806;SDS011;58882;52.170;5.386;2023-08-07T02:55:55;10.05;;;1.98;;
70806;SDS011;58882;52.170;5.386;2023-08-07T02:58:22;11.32;;;2.30;;
70806;SDS011;58882;52.170;5.386;2023-08-07T03:00:49;12.60;;;2.38;;
70806;SDS011;58882;52.170;5.386;2023-08-07T03:03:16;8.88;;;1.70;;
70806;SDS011;58882;52.170;5.386;2023-08-07T03:05:50;8.68;;;1.83;;
70806;SDS011;58882;52.170;5.386;2023-08-07T03:08:17;11.50;;;1.58;;
70806;SDS011;58882;52.170;5.386;2023-08-07T03:10:55;11.00;;;2.20;;
70806;SDS011;58882;52.170;5.386;2023-08-07T03:13:24;7.50;;;1.65;;
70806;SDS011;58882;52.170;5.386;2023-08-07T03:15:58;9.90;;;1.90;;
70806;SDS011;58882;52.170;5.386;2023-08-07T03:18:27;11.65;;;2.13;;
70806;SDS011;58882;52.170;5.386;2023-08-07T03:20:58;4.60;;;1.50;;
70806;SDS011;58882;52.170;5.386;2023-08-07T03:23:25;9.25;;;1.50;;
70806;SDS011;58882;52.170;5.386;2023-08-07T03:26:04;7.53;;;1.58;;
70806;SDS011;58882;52.170;5.386;2023-08-07T03:28:45;6.00;;;1.58;;
70806;SDS011;58882;52.170;5.386;2023-08-07T03:31:15;6.95;;;1.45;;
70806;SDS011;58882;52.170;5.386;2023-08-07T03:33:43;8.27;;;1.58;;
70806;SDS011;58882;52.170;5.386;2023-08-07T03:36:11;6.93;;;1.23;;
70806;SDS011;58882;52.170;5.386;2023-08-07T03:38:40;8.68;;;1.52;;
70806;SDS011;58882;52.170;5.386;2023-08-07T03:41:07;6.28;;;1.50;;
70806;SDS011;58882;52.170;5.386;2023-08-07T03:43:35;6.57;;;1.45;;
70806;SDS011;58882;52.170;5.386;2023-08-07T03:46:02;8.27;;;1.58;;
70806;SDS011;58882;52.170;5.386;2023-08-07T03:48:30;8.25;;;1.40;;
70806;SDS011;58882;52.170;5.386;2023-08-07T03:51:06;6.55;;;1.30;;
70806;SDS011;58882;52.170;5.386;2023-08-07T03:53:42;9.55;;;1.63;;
70806;SDS011;58882;52.170;5.386;2023-08-07T03:56:09;6.85;;;1.35;;
70806;SDS011;58882;52.170;5.386;2023-08-07T03:58:36;5.65;;;1.55;;
70806;SDS011;58882;52.170;5.386;2023-08-07T04:01:04;7.50;;;1.70;;
70806;SDS011;58882;52.170;5.386;2023-08-07T04:03:31;10.60;;;1.80;;
70806;SDS011;58882;52.170;5.386;2023-08-07T04:06:00;10.48;;;1.83;;
70806;SDS011;58882;52.170;5.386;2023-08-07T04:08:28;6.30;;;1.45;;
70806;SDS011;58882;52.170;5.386;2023-08-07T04:13:27;8.07;;;1.58;;
70806;SDS011;58882;52.170;5.386;2023-08-07T04:15:54;8.35;;;1.80;;
70806;SDS011;58882;52.170;5.386;2023-08-07T04:18:21;11.45;;;1.58;;
70806;SDS011;58882;52.170;5.386;2023-08-07T04:20:52;6.32;;;1.65;;
70806;SDS011;58882;52.170;5.386;2023-08-07T04:23:20;10.73;;;2.17;;
70806;SDS011;58882;52.170;5.386;2023-08-07T04:25:47;7.80;;;1.80;;
70806;SDS011;58882;52.170;5.386;2023-08-07T04:28:15;5.05;;;1.55;;
70806;SDS011;58882;52.170;5.386;2023-08-07T04:30:43;7.63;;;1.67;;
70806;SDS011;58882;52.170;5.386;2023-08-07T04:33:10;9.68;;;1.70;;
70806;SDS011;58882;52.170;5.386;2023-08-07T04:35:37;7.63;;;1.88;;
70806;SDS011;58882;52.170;5.386;2023-08-07T04:38:04;10.38;;;2.15;;
70806;SDS011;58882;52.170;5.386;2023-08-07T04:40:32;9.90;;;2.10;;
70806;SDS011;58882;52.170;5.386;2023-08-07T04:42:58;9.30;;;1.80;;
70806;SDS011;58882;52.170;5.386;2023-08-07T04:45:25;9.23;;;1.75;;
70806;SDS011;58882;52.170;5.386;2023-08-07T04:47:52;9.95;;;1.50;;
70806;SDS011;58882;52.170;5.386;2023-08-07T04:50:19;12.30;;;2.13;;
70806;SDS011;58882;52.170;5.386;2023-08-07T04:52:46;8.38;;;1.73;;
70806;SDS011;58882;52.170;5.386;2023-08-07T04:55:12;9.70;;;2.05;;
70806;SDS011;58882;52.170;5.386;2023-08-07T04:57:39;16.23;;;1.83;;
70806;SDS011;58882;52.170;5.386;2023-08-07T05:00:06;10.25;;;2.10;;
70806;SDS011;58882;52.170;5.386;2023-08-07T05:02:34;11.48;;;1.98;;
70806;SDS011;58882;52.170;5.386;2023-08-07T05:05:01;8.88;;;2.22;;
70806;SDS011;58882;52.170;5.386;2023-08-07T05:07:28;6.20;;;1.65;;
70806;SDS011;58882;52.170;5.386;2023-08-07T05:09:55;6.57;;;1.83;;
70806;SDS011;58882;52.170;5.386;2023-08-07T05:12:21;10.30;;;1.98;;
70806;SDS011;58882;52.170;5.386;2023-08-07T05:14:49;6.97;;;1.73;;
70806;SDS011;58882;52.170;5.386;2023-08-07T05:17:15;7.57;;;1.80;;
70806;SDS011;58882;52.170;5.386;2023-08-07T05:19:42;6.32;;;1.73;;
70806;SDS011;58882;52.170;5.386;2023-08-07T05:22:09;9.52;;;1.95;;
70806;SDS011;58882;52.170;5.386;2023-08-07T05:24:36;6.55;;;1.83;;
70806;SDS011;58882;52.170;5.386;2023-08-07T05:27:06;7.85;;;1.70;;
70806;SDS011;58882;52.170;5.386;2023-08-07T05:29:36;7.93;;;1.65;;
70806;SDS011;58882;52.170;5.386;2023-08-07T05:32:10;6.03;;;1.67;;
70806;SDS011;58882;52.170;5.386;2023-08-07T05:34:38;9.52;;;2.17;;
70806;SDS011;58882;52.170;5.386;2023-08-07T05:37:05;8.48;;;1.83;;
70806;SDS011;58882;52.170;5.386;2023-08-07T05:39:32;6.90;;;1.90;;
70806;SDS011;58882;52.170;5.386;2023-08-07T05:42:00;10.50;;;1.90;;
70806;SDS011;58882;52.170;5.386;2023-08-07T05:44:28;7.88;;;1.95;;
70806;SDS011;58882;52.170;5.386;2023-08-07T05:46:56;12.00;;;2.22;;
70806;SDS011;58882;52.170;5.386;2023-08-07T05:49:22;8.70;;;1.90;;
70806;SDS011;58882;52.170;5.386;2023-08-07T05:51:51;7.88;;;1.88;;
70806;SDS011;58882;52.170;5.386;2023-08-07T05:54:20;8.88;;;2.05;;
70806;SDS011;58882;52.170;5.386;2023-08-07T05:56:47;11.32;;;2.30;;
70806;SDS011;58882;52.170;5.386;2023-08-07T05:59:13;9.30;;;1.92;;
70806;SDS011;58882;52.170;5.386;2023-08-07T06:01:41;10.52;;;2.15;;
70806;SDS011;58882;52.170;5.386;2023-08-07T06:04:08;8.88;;;1.98;;
70806;SDS011;58882;52.170;5.386;2023-08-07T06:06:35;11.43;;;1.98;;
70806;SDS011;58882;52.170;5.386;2023-08-07T06:09:02;7.07;;;1.90;;
70806;SDS011;58882;52.170;5.386;2023-08-07T06:11:30;8.65;;;2.33;;
70806;SDS011;58882;52.170;5.386;2023-08-07T06:13:57;6.97;;;2.05;;
70806;SDS011;58882;52.170;5.386;2023-08-07T06:16:24;9.18;;;2.10;;
70806;SDS011;58882;52.170;5.386;2023-08-07T06:18:51;13.23;;;2.20;;
70806;SDS011;58882;52.170;5.386;2023-08-07T06:21:18;13.73;;;2.33;;
70806;SDS011;58882;52.170;5.386;2023-08-07T06:23:47;12.32;;;2.20;;
70806;SDS011;58882;52.170;5.386;2023-08-07T06:26:14;7.38;;;1.73;;
70806;SDS011;58882;52.170;5.386;2023-08-07T06:28:41;11.27;;;2.05;;
70806;SDS011;58882;52.170;5.386;2023-08-07T06:31:10;14.30;;;2.30;;
70806;SDS011;58882;52.170;5.386;2023-08-07T06:33:38;8.63;;;2.30;;
70806;SDS011;58882;52.170;5.386;2023-08-07T06:36:06;10.90;;;2.50;;
70806;SDS011;58882;52.170;5.386;2023-08-07T06:38:34;8.32;;;2.00;;
70806;SDS011;58882;52.170;5.386;2023-08-07T06:41:01;11.10;;;2.55;;
70806;SDS011;58882;52.170;5.386;2023-08-07T06:43:28;12.82;;;2.40;;
70806;SDS011;58882;52.170;5.386;2023-08-07T06:45:55;13.80;;;2.08;;
70806;SDS011;58882;52.170;5.386;2023-08-07T06:48:23;11.40;;;2.85;;
70806;SDS011;58882;52.170;5.386;2023-08-07T06:50:50;13.23;;;2.50;;
70806;SDS011;58882;52.170;5.386;2023-08-07T06:53:17;9.55;;;2.15;;
70806;SDS011;58882;52.170;5.386;2023-08-07T06:55:45;13.48;;;2.88;;
70806;SDS011;58882;52.170;5.386;2023-08-07T06:58:12;12.75;;;2.83;;
70806;SDS011;58882;52.170;5.386;2023-08-07T07:00:39;13.35;;;2.10;;
70806;SDS011;58882;52.170;5.386;2023-08-07T07:03:06;9.93;;;1.90;;
70806;SDS011;58882;52.170;5.386;2023-08-07T07:05:34;9.82;;;2.25;;
70806;SDS011;58882;52.170;5.386;2023-08-07T07:08:01;10.00;;;2.03;;
70806;SDS011;58882;52.170;5.386;2023-08-07T07:10:28;10.77;;;2.95;;
70806;SDS011;58882;52.170;5.386;2023-08-07T07:12:55;11.48;;;2.33;;
70806;SDS011;58882;52.170;5.386;2023-08-07T07:15:22;12.60;;;2.75;;
70806;SDS011;58882;52.170;5.386;2023-08-07T07:17:48;13.40;;;2.42;;
70806;SDS011;58882;52.170;5.386;2023-08-07T07:20:15;8.20;;;2.42;;
70806;SDS011;58882;52.170;5.386;2023-08-07T07:22:42;11.68;;;2.42;;
70806;SDS011;58882;52.170;5.386;2023-08-07T07:25:09;10.60;;;2.35;;
70806;SDS011;58882;52.170;5.386;2023-08-07T07:27:36;9.27;;;2.35;;
70806;SDS011;58882;52.170;5.386;2023-08-07T07:30:03;10.23;;;2.25;;
70806;SDS011;58882;52.170;5.386;2023-08-07T07:32:30;10.15;;;2.47;;
70806;SDS011;58882;52.170;5.386;2023-08-07T07:34:57;12.75;;;2.35;;
70806;SDS011;58882;52.170;5.386;2023-08-07T07:37:24;10.27;;;2.40;;
70806;SDS011;58882;52.170;5.386;2023-08-07T07:39:51;11.43;;;2.83;;
70806;SDS011;58882;52.170;5.386;2023-08-07T07:42:18;14.40;;;2.65;;
70806;SDS011;58882;52.170;5.386;2023-08-07T07:44:45;10.00;;;2.45;;
70806;SDS011;58882;52.170;5.386;2023-08-07T07:47:12;12.10;;;2.55;;
70806;SDS011;58882;52.170;5.386;2023-08-07T07:49:46;12.80;;;2.58;;
70806;SDS011;58882;52.170;5.386;2023-08-07T07:54:41;11.45;;;2.50;;
70806;SDS011;58882;52.170;5.386;2023-08-07T07:57:08;8.05;;;2.22;;
70806;SDS011;58882;52.170;5.386;2023-08-07T07:59:35;10.55;;;2.58;;
70806;SDS011;58882;52.170;5.386;2023-08-07T08:02:02;11.40;;;2.65;;
70806;SDS011;58882;52.170;5.386;2023-08-07T08:04:29;6.72;;;2.28;;
70806;SDS011;58882;52.170;5.386;2023-08-07T08:06:56;13.45;;;2.53;;
70806;SDS011;58882;52.170;5.386;2023-08-07T08:09:23;11.88;;;2.60;;
70806;SDS011;58882;52.170;5.386;2023-08-07T08:11:50;13.02;;;2.75;;
70806;SDS011;58882;52.170;5.386;2023-08-07T08:14:17;11.07;;;2.35;;
70806;SDS011;58882;52.170;5.386;2023-08-07T08:16:43;9.52;;;2.45;;
70806;SDS011;58882;52.170;5.386;2023-08-07T08:19:10;13.70;;;2.67;;
70806;SDS011;58882;52.170;5.386;2023-08-07T08:21:37;8.18;;;2.28;;
70806;SDS011;58882;52.170;5.386;2023-08-07T08:24:06;9.85;;;2.38;;
70806;SDS011;58882;52.170;5.386;2023-08-07T08:26:33;11.10;;;2.50;;
70806;SDS011;58882;52.170;5.386;2023-08-07T08:29:00;10.43;;;2.22;;
70806;SDS011;58882;52.170;5.386;2023-08-07T08:31:27;10.38;;;2.30;;
70806;SDS011;58882;52.170;5.386;2023-08-07T08:33:55;8.35;;;2.10;;
70806;SDS011;58882;52.170;5.386;2023-08-07T08:36:22;8.88;;;1.85;;
70806;SDS011;58882;52.170;5.386;2023-08-07T08:38:49;8.85;;;2.10;;
70806;SDS011;58882;52.170;5.386;2023-08-07T08:41:18;10.82;;;2.20;;
70806;SDS011;58882;52.170;5.386;2023-08-07T08:43:46;15.65;;;2.22;;
70806;SDS011;58882;52.170;5.386;2023-08-07T08:46:14;11.82;;;2.00;;
70806;SDS011;58882;52.170;5.386;2023-08-07T08:48:46;8.73;;;1.90;;
70806;SDS011;58882;52.170;5.386;2023-08-07T08:51:21;9.25;;;2.20;;
70806;SDS011;58882;52.170;5.386;2023-08-07T08:53:49;10.20;;;2.25;;
70806;SDS011;58882;52.170;5.386;2023-08-07T08:56:22;7.13;;;2.22;;
70806;SDS011;58882;52.170;5.386;2023-08-07T08:58:50;10.68;;;2.22;;
70806;SDS011;58882;52.170;5.386;2023-08-07T09:01:17;7.45;;;1.80;;
70806;SDS011;58882;52.170;5.386;2023-08-07T09:03:45;9.43;;;2.10;;
70806;SDS011;58882;52.170;5.386;2023-08-07T09:06:12;8.00;;;2.17;;
70806;SDS011;58882;52.170;5.386;2023-08-07T09:08:43;6.15;;;1.83;;
70806;SDS011;58882;52.170;5.386;2023-08-07T09:11:10;8.32;;;1.88;;
70806;SDS011;58882;52.170;5.386;2023-08-07T09:13:39;6.68;;;1.80;;
70806;SDS011;58882;52.170;5.386;2023-08-07T09:16:07;12.63;;;2.28;;
70806;SDS011;58882;52.170;5.386;2023-08-07T09:21:02;10.80;;;1.98;;
70806;SDS011;58882;52.170;5.386;2023-08-07T09:23:29;10.75;;;2.10;;
70806;SDS011;58882;52.170;5.386;2023-08-07T09:26:00;8.75;;;2.20;;
70806;SDS011;58882;52.170;5.386;2023-08-07T09:28:29;10.38;;;2.17;;
70806;SDS011;58882;52.170;5.386;2023-08-07T09:30:56;10.95;;;2.10;;
70806;SDS011;58882;52.170;5.386;2023-08-07T09:33:28;12.50;;;2.10;;
70806;SDS011;58882;52.170;5.386;2023-08-07T09:36:00;7.70;;;2.03;;
70806;SDS011;58882;52.170;5.386;2023-08-07T09:38:30;7.80;;;1.90;;
70806;SDS011;58882;52.170;5.386;2023-08-07T09:41:01;9.95;;;2.03;;
70806;SDS011;58882;52.170;5.386;2023-08-07T09:43:33;8.45;;;1.90;;
70806;SDS011;58882;52.170;5.386;2023-08-07T09:46:02;7.93;;;1.90;;
70806;SDS011;58882;52.170;5.386;2023-08-07T09:48:30;12.90;;;2.20;;
70806;SDS011;58882;52.170;5.386;2023-08-07T09:51:00;10.30;;;2.33;;
70806;SDS011;58882;52.170;5.386;2023-08-07T09:53:30;9.52;;;2.50;;
70806;SDS011;58882;52.170;5.386;2023-08-07T09:55:58;6.47;;;1.77;;
70806;SDS011;58882;52.170;5.386;2023-08-07T09:58:26;9.18;;;2.20;;
70806;SDS011;58882;52.170;5.386;2023-08-07T10:00:53;8.48;;;2.22;;
70806;SDS011;58882;52.170;5.386;2023-08-07T10:03:20;9.45;;;2.13;;
70806;SDS011;58882;52.170;5.386;2023-08-07T10:05:49;9.15;;;2.10;;
70806;SDS011;58882;52.170;5.386;2023-08-07T10:08:16;10.55;;;1.90;;
70806;SDS011;58882;52.170;5.386;2023-08-07T10:10:44;11.38;;;2.10;;
70806;SDS011;58882;52.170;5.386;2023-08-07T10:13:13;11.57;;;2.08;;
70806;SDS011;58882;52.170;5.386;2023-08-07T10:15:43;9.18;;;2.00;;
70806;SDS011;58882;52.170;5.386;2023-08-07T10:18:12;8.05;;;2.00;;
70806;SDS011;58882;52.170;5.386;2023-08-07T10:20:39;6.95;;;2.00;;
70806;SDS011;58882;52.170;5.386;2023-08-07T10:23:10;8.25;;;2.05;;
70806;SDS011;58882;52.170;5.386;2023-08-07T10:25:41;8.90;;;2.30;;
70806;SDS011;58882;52.170;5.386;2023-08-07T10:28:13;9.40;;;1.88;;
70806;SDS011;58882;52.170;5.386;2023-08-07T10:30:43;8.10;;;1.75;;
70806;SDS011;58882;52.170;5.386;2023-08-07T10:33:10;6.40;;;1.90;;
70806;SDS011;58882;52.170;5.386;2023-08-07T10:35:44;10.60;;;1.85;;
70806;SDS011;58882;52.170;5.386;2023-08-07T10:38:13;7.28;;;1.88;;
70806;SDS011;58882;52.170;5.386;2023-08-07T10:40:58;9.90;;;1.90;;
70806;SDS011;58882;52.170;5.386;2023-08-07T10:43:25;7.57;;;1.77;;
70806;SDS011;58882;52.170;5.386;2023-08-07T10:45:54;9.02;;;1.88;;
70806;SDS011;58882;52.170;5.386;2023-08-07T10:48:29;10.35;;;2.03;;
70806;SDS011;58882;52.170;5.386;2023-08-07T10:50:56;7.80;;;1.83;;
70806;SDS011;58882;52.170;5.386;2023-08-07T10:53:30;8.05;;;1.67;;
70806;SDS011;58882;52.170;5.386;2023-08-07T10:55:58;8.65;;;2.08;;
70806;SDS011;58882;52.170;5.386;2023-08-07T11:04:08;9.70;;;2.00;;
70806;SDS011;58882;52.170;5.386;2023-08-07T11:06:40;13.68;;;2.17;;
70806;SDS011;58882;52.170;5.386;2023-08-07T11:09:08;10.48;;;2.03;;
70806;SDS011;58882;52.170;5.386;2023-08-07T11:11:43;7.43;;;2.35;;
70806;SDS011;58882;52.170;5.386;2023-08-07T11:14:15;7.15;;;2.13;;
70806;SDS011;58882;52.170;5.386;2023-08-07T11:16:44;8.25;;;2.10;;
70806;SDS011;58882;52.170;5.386;2023-08-07T11:19:13;8.50;;;2.00;;
70806;SDS011;58882;52.170;5.386;2023-08-07T11:21:41;6.63;;;1.77;;
70806;SDS011;58882;52.170;5.386;2023-08-07T11:24:11;7.45;;;1.65;;
70806;SDS011;58882;52.170;5.386;2023-08-07T11:26:39;7.65;;;1.77;;
70806;SDS011;58882;52.170;5.386;2023-08-07T11:29:08;6.60;;;1.80;;
70806;SDS011;58882;52.170;5.386;2023-08-07T11:31:35;7.47;;;2.03;;
70806;SDS011;58882;52.170;5.386;2023-08-07T11:34:02;6.53;;;1.90;;
70806;SDS011;58882;52.170;5.386;2023-08-07T11:36:30;8.65;;;2.10;;
70806;SDS011;58882;52.170;5.386;2023-08-07T11:43:51;8.55;;;1.85;;
70806;SDS011;58882;52.170;5.386;2023-08-07T11:46:18;9.15;;;1.70;;
70806;SDS011;58882;52.170;5.386;2023-08-07T11:48:45;7.72;;;1.80;;
70806;SDS011;58882;52.170;5.386;2023-08-07T11:51:12;6.65;;;1.83;;
70806;SDS011;58882;52.170;5.386;2023-08-07T11:53:40;8.70;;;1.85;;
70806;SDS011;58882;52.170;5.386;2023-08-07T11:56:11;8.70;;;1.73;;
70806;SDS011;58882;52.170;5.386;2023-08-07T11:58:43;6.25;;;2.00;;
70806;SDS011;58882;52.170;5.386;2023-08-07T12:01:15;7.15;;;1.85;;
70806;SDS011;58882;52.170;5.386;2023-08-07T12:06:22;7.57;;;2.03;;
70806;SDS011;58882;52.170;5.386;2023-08-07T12:08:52;6.80;;;1.90;;
70806;SDS011;58882;52.170;5.386;2023-08-07T12:11:21;6.90;;;1.83;;
70806;SDS011;58882;52.170;5.386;2023-08-07T12:13:48;8.75;;;1.80;;
70806;SDS011;58882;52.170;5.386;2023-08-07T12:16:16;7.38;;;1.80;;
70806;SDS011;58882;52.170;5.386;2023-08-07T12:18:44;6.03;;;1.77;;
70806;SDS011;58882;52.170;5.386;2023-08-07T12:21:14;6.45;;;1.73;;
70806;SDS011;58882;52.170;5.386;2023-08-07T12:23:43;5.80;;;1.60;;
70806;SDS011;58882;52.170;5.386;2023-08-07T12:26:10;5.97;;;1.52;;
70806;SDS011;58882;52.170;5.386;2023-08-07T12:28:37;8.27;;;1.80;;
70806;SDS011;58882;52.170;5.386;2023-08-07T12:31:04;8.10;;;1.65;;
70806;SDS011;58882;52.170;5.386;2023-08-07T12:33:33;7.97;;;1.80;;
70806;SDS011;58882;52.170;5.386;2023-08-07T12:36:00;6.40;;;1.80;;
70806;SDS011;58882;52.170;5.386;2023-08-07T12:38:28;6.00;;;1.90;;
70806;SDS011;58882;52.170;5.386;2023-08-07T12:40:55;7.03;;;1.80;;
70806;SDS011;58882;52.170;5.386;2023-08-07T12:43:22;7.20;;;1.50;;
70806;SDS011;58882;52.170;5.386;2023-08-07T12:45:50;9.63;;;1.70;;
70806;SDS011;58882;52.170;5.386;2023-08-07T12:48:19;5.95;;;1.75;;
70806;SDS011;58882;52.170;5.386;2023-08-07T12:50:46;6.22;;;1.60;;
70806;SDS011;58882;52.170;5.386;2023-08-07T12:53:13;4.90;;;1.50;;
70806;SDS011;58882;52.170;5.386;2023-08-07T12:55:40;6.95;;;1.70;;
70806;SDS011;58882;52.170;5.386;2023-08-07T12:58:07;6.53;;;1.65;;
70806;SDS011;58882;52.170;5.386;2023-08-07T13:00:34;4.68;;;1.40;;
70806;SDS011;58882;52.170;5.386;2023-08-07T13:03:01;6.88;;;1.70;;
70806;SDS011;58882;52.170;5.386;2023-08-07T13:05:28;5.38;;;1.70;;
70806;SDS011;58882;52.170;5.386;2023-08-07T13:07:57;5.15;;;1.38;;
70806;SDS011;58882;52.170;5.386;2023-08-07T13:10:25;6.60;;;1.60;;
70806;SDS011;58882;52.170;5.386;2023-08-07T13:12:54;9.43;;;1.63;;
70806;SDS011;58882;52.170;5.386;2023-08-07T13:15:21;7.00;;;1.80;;
70806;SDS011;58882;52.170;5.386;2023-08-07T13:17:48;6.95;;;1.58;;
70806;SDS011;58882;52.170;5.386;2023-08-07T13:20:15;5.68;;;1.50;;
70806;SDS011;58882;52.170;5.386;2023-08-07T13:22:43;6.00;;;1.50;;
70806;SDS011;58882;52.170;5.386;2023-08-07T13:25:12;6.30;;;1.70;;
70806;SDS011;58882;52.170;5.386;2023-08-07T13:30:07;5.47;;;1.50;;
70806;SDS011;58882;52.170;5.386;2023-08-07T13:32:35;4.70;;;1.30;;
70806;SDS011;58882;52.170;5.386;2023-08-07T13:35:03;2.75;;;1.30;;
70806;SDS011;58882;52.170;5.386;2023-08-07T13:37:31;10.52;;;1.55;;
70806;SDS011;58882;52.170;5.386;2023-08-07T13:42:26;5.25;;;1.55;;
70806;SDS011;58882;52.170;5.386;2023-08-07T13:44:54;8.88;;;1.60;;
70806;SDS011;58882;52.170;5.386;2023-08-07T13:47:22;5.88;;;1.67;;
70806;SDS011;58882;52.170;5.386;2023-08-07T13:49:52;5.70;;;1.45;;
70806;SDS011;58882;52.170;5.386;2023-08-07T13:52:20;4.40;;;1.40;;
70806;SDS011;58882;52.170;5.386;2023-08-07T13:54:47;10.57;;;1.52;;
70806;SDS011;58882;52.170;5.386;2023-08-07T13:57:14;6.85;;;1.77;;
70806;SDS011;58882;52.170;5.386;2023-08-07T13:59:42;5.03;;;1.48;;
70806;SDS011;58882;52.170;5.386;2023-08-07T14:02:09;4.22;;;1.30;;
70806;SDS011;58882;52.170;5.386;2023-08-07T14:04:36;5.72;;;1.50;;
70806;SDS011;58882;52.170;5.386;2023-08-07T14:07:03;5.78;;;1.58;;
70806;SDS011;58882;52.170;5.386;2023-08-07T14:09:30;7.00;;;1.80;;
70806;SDS011;58882;52.170;5.386;2023-08-07T14:11:57;6.13;;;1.50;;
70806;SDS011;58882;52.170;5.386;2023-08-07T14:14:24;8.25;;;1.67;;
70806;SDS011;58882;52.170;5.386;2023-08-07T14:16:51;6.80;;;1.70;;
70806;SDS011;58882;52.170;5.386;2023-08-07T14:19:20;6.22;;;1.42;;
70806;SDS011;58882;52.170;5.386;2023-08-07T14:21:47;4.78;;;1.40;;
70806;SDS011;58882;52.170;5.386;2023-08-07T14:24:14;5.10;;;1.63;;
70806;SDS011;58882;52.170;5.386;2023-08-07T14:26:43;8.52;;;1.60;;
70806;SDS011;58882;52.170;5.386;2023-08-07T14:29:10;8.38;;;1.60;;
70806;SDS011;58882;52.170;5.386;2023-08-07T14:31:37;4.95;;;1.48;;
70806;SDS011;58882;52.170;5.386;2023-08-07T14:34:04;6.55;;;1.60;;
70806;SDS011;58882;52.170;5.386;2023-08-07T14:36:31;4.68;;;1.30;;
70806;SDS011;58882;52.170;5.386;2023-08-07T14:38:57;6.53;;;1.77;;
70806;SDS011;58882;52.170;5.386;2023-08-07T14:41:24;6.25;;;1.50;;
70806;SDS011;58882;52.170;5.386;2023-08-07T14:43:51;3.78;;;1.35;;
70806;SDS011;58882;52.170;5.386;2023-08-07T14:46:19;6.90;;;1.60;;
70806;SDS011;58882;52.170;5.386;2023-08-07T14:58:34;5.57;;;1.73;;
70806;SDS011;58882;52.170;5.386;2023-08-07T15:01:01;6.30;;;1.50;;
70806;SDS011;58882;52.170;5.386;2023-08-07T15:03:28;5.50;;;1.60;;
70806;SDS011;58882;52.170;5.386;2023-08-07T15:05:55;7.25;;;1.70;;
70806;SDS011;58882;52.170;5.386;2023-08-07T15:13:18;5.15;;;1.52;;
70806;SDS011;58882;52.170;5.386;2023-08-07T15:15:45;6.38;;;1.40;;
70806;SDS011;58882;52.170;5.386;2023-08-07T15:18:12;5.72;;;1.60;;
70806;SDS011;58882;52.170;5.386;2023-08-07T15:20:39;9.23;;;1.63;;
70806;SDS011;58882;52.170;5.386;2023-08-07T15:23:07;5.75;;;1.65;;
70806;SDS011;58882;52.170;5.386;2023-08-07T15:25:34;6.28;;;1.80;;
70806;SDS011;58882;52.170;5.386;2023-08-07T15:28:00;7.93;;;1.65;;
70806;SDS011;58882;52.170;5.386;2023-08-07T15:30:29;7.47;;;1.90;;
70806;SDS011;58882;52.170;5.386;2023-08-07T15:32:57;5.95;;;1.63;;